createdAt,value
2022-09-21T00:00:20.559Z,53.14
2022-09-21T00:02:50.450Z,52.91
2022-09-21T00:05:21.589Z,53.67
2022-09-21T00:07:51.765Z,53.43
2022-09-21T00:10:22.694Z,53.26
2022-09-21T00:12:52.475Z,53.10
2022-09-21T00:15:22.258Z,53.59
2022-09-21T00:17:54.825Z,53.34
2022-09-21T00:20:27.961Z,53.68
2022-09-21T00:22:58.023Z,54.20
2022-09-21T00:25:28.257Z,54.42
2022-09-21T00:27:58.419Z,54.62
2022-09-21T00:30:28.684Z,55.40
2022-09-21T00:32:58.729Z,55.60
2022-09-21T00:35:30.018Z,55.86
2022-09-21T00:38:02.803Z,55.32
2022-09-21T00:40:33.343Z,56.11
2022-09-21T00:43:14.095Z,55.57
2022-09-21T00:45:45.886Z,55.92
2022-09-21T00:48:16.476Z,55.77
2022-09-21T00:50:54.898Z,55.34
2022-09-21T00:53:24.776Z,55.04
2022-09-21T00:55:58.443Z,55.00
2022-09-21T00:58:32.590Z,54.80
2022-09-21T01:01:02.559Z,55.90
2022-09-21T01:03:33.527Z,55.60
2022-09-21T01:06:04.995Z,56.00
2022-09-21T01:08:35.294Z,56.22
2022-09-21T01:11:25.251Z,55.75
2022-09-21T01:14:15.264Z,56.17
2022-09-21T01:16:52.850Z,55.55
2022-09-21T01:19:47.707Z,56.05
2022-09-21T01:22:28.010Z,56.28
2022-09-21T01:25:13.622Z,56.94
2022-09-21T01:27:55.069Z,56.52
2022-09-21T01:30:27.049Z,56.64
2022-09-21T01:33:04.186Z,56.60
2022-09-21T01:35:38.918Z,56.50
2022-09-21T01:38:13.832Z,56.10
2022-09-21T01:40:47.289Z,56.22
2022-09-21T01:43:20.863Z,56.17
2022-09-21T01:45:55.630Z,55.68
2022-09-21T01:48:26.962Z,55.92
2022-09-21T01:50:59.079Z,55.64
2022-09-21T01:53:34.636Z,55.54
2022-09-21T01:56:11.902Z,56.00
2022-09-21T01:58:47.152Z,56.10
2022-09-21T02:01:22.258Z,55.98
2022-09-21T02:03:56.443Z,56.00
2022-09-21T02:06:27.160Z,55.58
2022-09-21T02:08:58.988Z,55.76
2022-09-21T02:11:29.036Z,56.01
2022-09-21T02:13:59.563Z,55.65
2022-09-21T02:16:38.879Z,56.22
2022-09-21T02:19:13.971Z,56.29
2022-09-21T02:21:55.672Z,56.58
2022-09-21T02:24:35.068Z,56.73
2022-09-21T02:27:07.678Z,56.83
2022-09-21T02:29:48.362Z,56.69
2022-09-21T02:32:30.401Z,57.04
2022-09-21T02:35:04.982Z,56.87
2022-09-21T02:37:38.743Z,57.13
2022-09-21T02:40:23.890Z,56.96
2022-09-21T02:42:58.030Z,57.48
2022-09-21T02:45:34.355Z,57.27
2022-09-21T02:48:10.728Z,57.38
2022-09-21T02:50:45.623Z,56.87
2022-09-21T02:53:20.108Z,56.65
2022-09-21T02:55:56.190Z,57.16
2022-09-21T02:58:29.528Z,56.97
2022-09-21T03:01:00.622Z,57.40
2022-09-21T03:03:32.049Z,57.55
2022-09-21T03:06:02.880Z,57.99
2022-09-21T03:08:32.750Z,57.70
2022-09-21T03:11:02.922Z,57.56
2022-09-21T03:13:33.262Z,57.26
2022-09-21T03:16:05.639Z,56.77
2022-09-21T03:18:37.404Z,56.67
2022-09-21T03:21:08.161Z,56.72
2022-09-21T03:23:38.052Z,56.99
2022-09-21T03:26:08.535Z,56.80
2022-09-21T03:28:38.607Z,57.48
2022-09-21T03:31:08.649Z,57.29
2022-09-21T03:33:40.122Z,57.17
2022-09-21T03:36:10.887Z,57.34
2022-09-21T03:38:42.724Z,57.05
2022-09-21T03:41:13.597Z,56.25
2022-09-21T03:43:44.842Z,56.16
2022-09-21T03:46:14.752Z,55.14
2022-09-21T03:48:47.586Z,55.52
2022-09-21T03:51:17.720Z,55.35
2022-09-21T03:53:48.957Z,54.75
2022-09-21T03:56:18.626Z,54.71
2022-09-21T03:58:48.440Z,54.27
2022-09-21T04:01:18.513Z,54.47
2022-09-21T04:03:50.026Z,54.13
2022-09-21T04:06:20.218Z,54.12
2022-09-21T04:08:50.134Z,54.24
2022-09-21T04:11:23.096Z,53.83
2022-09-21T04:13:57.414Z,54.00
2022-09-21T04:16:28.225Z,54.18
2022-09-21T04:18:59.525Z,53.67
2022-09-21T04:21:29.983Z,53.63
2022-09-21T04:24:00.282Z,54.03
2022-09-21T04:26:31.587Z,54.18
2022-09-21T04:29:02.109Z,54.04
2022-09-21T04:31:33.338Z,54.62
2022-09-21T04:34:04.741Z,53.95
2022-09-21T04:36:36.813Z,53.92
2022-09-21T04:39:07.460Z,54.73
2022-09-21T04:41:37.431Z,54.65
2022-09-21T04:44:07.368Z,54.55
2022-09-21T04:46:37.469Z,55.03
2022-09-21T04:49:08.872Z,55.37
2022-09-21T04:51:39.095Z,55.95
2022-09-21T04:54:09.032Z,56.18
2022-09-21T04:56:38.912Z,56.80
2022-09-21T04:59:08.779Z,55.83
2022-09-21T05:01:38.733Z,55.60
2022-09-21T05:04:10.325Z,55.07
2022-09-21T05:06:40.136Z,54.80
2022-09-21T05:09:27.459Z,54.50
2022-09-21T05:11:57.367Z,54.43
2022-09-21T05:14:27.711Z,54.76
2022-09-21T05:16:57.561Z,54.97
2022-09-21T05:19:29.683Z,54.69
2022-09-21T05:21:59.376Z,54.40
2022-09-21T05:24:29.520Z,54.37
2022-09-21T05:27:00.828Z,54.17
2022-09-21T05:29:31.319Z,54.64
2022-09-21T05:32:07.769Z,54.42
2022-09-21T05:34:52.278Z,54.47
2022-09-21T05:37:42.103Z,54.13
2022-09-21T05:40:14.497Z,53.18
2022-09-21T05:42:45.585Z,53.13
2022-09-21T05:45:18.037Z,53.04
2022-09-21T05:47:55.413Z,53.04
2022-09-21T05:50:49.659Z,53.09
2022-09-21T05:53:43.766Z,53.13
2022-09-21T05:56:25.500Z,52.77
2022-09-21T05:59:00.687Z,52.82
2022-09-21T06:01:42.389Z,52.36
2022-09-21T06:04:13.672Z,52.10
2022-09-21T06:06:45.783Z,52.37
2022-09-21T06:09:15.673Z,52.50
2022-09-21T06:11:45.496Z,52.20
2022-09-21T06:14:15.321Z,52.28
2022-09-21T06:16:45.162Z,52.16
2022-09-21T06:19:16.354Z,52.25
2022-09-21T06:21:48.159Z,52.92
2022-09-21T06:24:17.868Z,53.39
2022-09-21T06:26:47.690Z,53.70
2022-09-21T06:29:18.818Z,53.44
2022-09-21T06:31:48.616Z,52.63
2022-09-21T06:34:18.887Z,52.90
2022-09-21T06:36:50.004Z,53.07
2022-09-21T06:39:20.014Z,53.34
2022-09-21T06:41:49.960Z,52.98
2022-09-21T06:44:19.707Z,52.46
2022-09-21T06:46:49.678Z,52.27
2022-09-21T06:49:19.681Z,52.12
2022-09-21T06:51:51.072Z,52.11
2022-09-21T06:54:20.930Z,52.45
2022-09-21T06:56:50.791Z,51.97
2022-09-21T06:59:20.569Z,52.86
2022-09-21T07:01:50.426Z,52.47
2022-09-21T07:05:15.382Z,52.55
2022-09-21T07:08:05.393Z,51.76
2022-09-21T07:10:35.255Z,52.03
2022-09-21T07:13:07.095Z,52.02
2022-09-21T07:15:36.949Z,51.80
2022-09-21T07:18:13.008Z,51.80
2022-09-21T07:20:44.437Z,51.61
2022-09-21T07:23:17.392Z,51.55
2022-09-21T07:25:50.574Z,51.38
2022-09-21T07:28:20.982Z,51.41
2022-09-21T07:30:51.037Z,51.10
2022-09-21T07:33:20.873Z,50.05
2022-09-21T07:35:52.941Z,50.51
2022-09-21T07:38:24.649Z,49.71
2022-09-21T07:40:54.664Z,49.39
2022-09-21T07:43:24.681Z,49.15
2022-09-21T07:45:55.035Z,48.69
2022-09-21T07:48:24.896Z,48.37
2022-09-21T07:50:54.901Z,48.35
2022-09-21T07:53:26.647Z,47.88
2022-09-21T07:56:02.184Z,48.27
2022-09-21T07:58:49.753Z,47.75
2022-09-21T08:01:19.829Z,47.27
2022-09-21T08:03:50.668Z,46.67
2022-09-21T08:06:21.281Z,46.06
2022-09-21T08:08:57.735Z,45.70
2022-09-21T08:11:30.685Z,45.04
2022-09-21T08:14:02.426Z,44.66
2022-09-21T08:16:33.999Z,45.71
2022-09-21T08:19:05.448Z,46.13
2022-09-21T08:21:35.646Z,44.87
2022-09-21T08:24:07.658Z,45.23
2022-09-21T08:26:37.835Z,44.37
2022-09-21T08:29:07.581Z,43.92
2022-09-21T08:31:37.590Z,44.00
2022-09-21T08:34:07.550Z,43.30
2022-09-21T08:36:37.556Z,43.37
2022-09-21T08:39:09.497Z,43.96
2022-09-21T08:41:55.770Z,43.98
2022-09-21T08:44:30.620Z,43.86
2022-09-21T08:47:07.307Z,43.57
2022-09-21T08:49:39.572Z,43.24
2022-09-21T08:52:16.607Z,43.14
2022-09-21T08:54:56.375Z,42.48
2022-09-21T08:57:30.617Z,42.47
2022-09-21T09:00:03.339Z,42.15
2022-09-21T09:02:44.364Z,41.25
2022-09-21T09:05:29.386Z,41.33
2022-09-21T09:08:21.487Z,40.88
2022-09-21T09:11:06.143Z,41.43
2022-09-21T09:14:05.320Z,41.73
2022-09-21T09:16:42.067Z,41.56
2022-09-21T09:19:24.034Z,41.22
2022-09-21T09:21:55.269Z,41.30
2022-09-21T09:24:34.178Z,41.68
2022-09-21T09:27:11.655Z,41.52
2022-09-21T09:29:50.299Z,41.60
2022-09-21T09:32:22.606Z,41.45
2022-09-21T09:34:56.967Z,40.66
2022-09-21T09:37:34.945Z,40.29
2022-09-21T09:40:08.738Z,40.55
2022-09-21T09:43:01.312Z,40.96
2022-09-21T09:45:47.662Z,41.12
2022-09-21T09:48:39.835Z,40.36
2022-09-21T09:51:12.560Z,40.07
2022-09-21T09:53:42.497Z,40.04
2022-09-21T09:56:14.852Z,40.84
2022-09-21T09:58:53.674Z,40.43
2022-09-21T10:01:43.194Z,39.63
2022-09-21T10:04:15.419Z,39.76
2022-09-21T10:06:47.120Z,39.82
2022-09-21T10:09:24.289Z,39.11
2022-09-21T10:11:56.538Z,39.79
2022-09-21T10:14:30.765Z,39.93
2022-09-21T10:17:06.917Z,39.82
2022-09-21T10:19:38.206Z,39.82
2022-09-21T10:22:08.104Z,39.87
2022-09-21T10:24:40.750Z,39.59
2022-09-21T10:27:15.444Z,38.39
2022-09-21T10:29:48.091Z,38.08
2022-09-21T10:32:23.654Z,38.66
2022-09-21T10:35:19.246Z,39.49
2022-09-21T10:37:53.662Z,39.25
2022-09-21T10:40:26.770Z,39.59
2022-09-21T10:42:59.096Z,39.05
2022-09-21T10:45:31.708Z,39.17
2022-09-21T10:48:11.002Z,39.54
2022-09-21T10:50:42.723Z,39.63
2022-09-21T10:53:20.944Z,39.42
2022-09-21T10:56:15.577Z,39.53
2022-09-21T10:59:20.151Z,39.38
2022-09-21T11:01:53.791Z,39.26
2022-09-21T11:04:32.156Z,39.43
2022-09-21T11:07:10.295Z,39.04
2022-09-21T11:09:46.787Z,38.85
2022-09-21T11:12:34.410Z,37.94
2022-09-21T11:15:16.887Z,38.09
2022-09-21T11:17:53.384Z,37.95
2022-09-21T11:20:29.315Z,37.33
2022-09-21T11:23:06.076Z,37.77
2022-09-21T11:25:44.348Z,37.69
2022-09-21T11:28:20.648Z,37.90
2022-09-21T11:31:25.827Z,38.09
2022-09-21T11:34:16.564Z,37.24
2022-09-21T11:36:57.409Z,37.84
2022-09-21T11:39:39.629Z,36.27
2022-09-21T11:42:23.225Z,36.10
2022-09-21T11:44:56.392Z,36.61
2022-09-21T11:48:00.169Z,36.37
2022-09-21T11:50:43.697Z,36.28
2022-09-21T11:53:38.168Z,35.92
2022-09-21T11:56:49.233Z,35.58
2022-09-21T11:59:35.248Z,35.35
2022-09-21T12:02:31.526Z,34.88
2022-09-21T12:05:07.959Z,34.62
2022-09-21T12:08:04.707Z,34.71
2022-09-21T12:10:41.365Z,34.97
2022-09-21T12:13:22.671Z,35.48
2022-09-21T12:16:00.008Z,34.28
2022-09-21T12:18:43.801Z,33.10
2022-09-21T12:21:20.906Z,33.18
2022-09-21T12:23:55.211Z,32.78
2022-09-21T12:26:29.190Z,33.54
2022-09-21T12:29:03.510Z,33.78
2022-09-21T12:31:40.788Z,32.40
2022-09-21T12:34:17.135Z,32.62
2022-09-21T12:36:56.702Z,32.48
2022-09-21T12:39:32.563Z,32.74
2022-09-21T12:42:08.788Z,32.76
2022-09-21T12:44:53.007Z,32.25
2022-09-21T12:47:27.282Z,32.75
2022-09-21T12:50:02.915Z,32.78
2022-09-21T12:52:34.997Z,32.88
2022-09-21T12:55:32.270Z,32.97
2022-09-21T12:58:15.576Z,32.99
2022-09-21T13:00:53.931Z,34.43
2022-09-21T13:03:32.048Z,36.30
2022-09-21T13:06:35.095Z,36.79
2022-09-21T13:09:09.971Z,37.57
2022-09-21T13:12:00.291Z,39.25
2022-09-21T13:14:34.782Z,40.28
2022-09-21T13:17:06.082Z,40.23
2022-09-21T13:19:36.875Z,40.42
2022-09-21T13:22:20.691Z,40.60
2022-09-21T13:25:03.083Z,40.31
2022-09-21T13:28:01.429Z,41.31
2022-09-21T13:30:40.540Z,41.61
2022-09-21T13:33:32.344Z,42.49
2022-09-21T13:36:30.141Z,42.56
2022-09-21T13:39:21.175Z,42.91
2022-09-21T13:42:02.901Z,43.07
2022-09-21T13:44:42.444Z,43.42
2022-09-21T13:47:12.504Z,43.96
2022-09-21T13:49:50.904Z,43.21
2022-09-21T13:52:30.083Z,43.67
2022-09-21T13:55:02.436Z,44.35
2022-09-21T13:57:38.015Z,45.10
2022-09-21T14:00:33.403Z,47.22
2022-09-21T14:03:07.714Z,50.47
2022-09-21T14:05:42.690Z,53.42
2022-09-21T14:08:24.374Z,56.08
2022-09-21T14:10:59.213Z,56.63
2022-09-21T14:13:35.839Z,57.22
2022-09-21T14:16:45.574Z,59.10
2022-09-21T14:19:51.203Z,59.39
2022-09-21T14:22:42.718Z,56.88
2022-09-21T14:25:51.138Z,57.92
2022-09-21T14:28:35.196Z,58.57
2022-09-21T14:31:09.377Z,56.63
2022-09-21T14:33:47.752Z,55.98
2022-09-21T14:36:22.498Z,56.42
2022-09-21T14:39:00.504Z,56.38
2022-09-21T14:41:34.553Z,55.60
2022-09-21T14:44:04.646Z,54.71
2022-09-21T14:46:51.474Z,54.86
2022-09-21T14:49:34.906Z,53.34
2022-09-21T14:52:22.236Z,53.31
2022-09-21T14:55:03.277Z,53.25
2022-09-21T14:57:48.476Z,52.87
2022-09-21T15:00:23.435Z,52.30
2022-09-21T15:03:25.925Z,53.00
2022-09-21T15:06:22.278Z,52.65
2022-09-21T15:09:28.228Z,54.01
2022-09-21T15:12:07.259Z,54.69
2022-09-21T15:14:42.491Z,55.99
2022-09-21T15:17:27.292Z,57.54
2022-09-21T15:20:00.833Z,59.59
2022-09-21T15:22:32.009Z,64.09
2022-09-21T15:25:06.025Z,67.25
2022-09-21T15:27:37.858Z,68.27
2022-09-21T15:30:19.436Z,69.99
2022-09-21T15:32:54.228Z,70.56
2022-09-21T15:35:27.748Z,72.97
2022-09-21T15:38:00.054Z,71.20
2022-09-21T15:40:33.928Z,67.89
2022-09-21T15:43:06.724Z,70.35
2022-09-21T15:45:51.781Z,71.49
2022-09-21T15:48:22.230Z,74.05
2022-09-21T15:50:57.944Z,73.97
2022-09-21T15:53:31.943Z,72.74
2022-09-21T15:56:03.037Z,74.62
2022-09-21T15:58:37.305Z,74.67
2022-09-21T16:01:12.648Z,73.83
2022-09-21T16:03:45.193Z,74.05
2022-09-21T16:06:28.728Z,74.65
2022-09-21T16:08:58.765Z,73.64
2022-09-21T16:11:37.837Z,74.88
2022-09-21T16:14:30.406Z,74.72
2022-09-21T16:17:26.378Z,74.56
2022-09-21T16:20:16.065Z,74.87
2022-09-21T16:22:48.098Z,74.72
2022-09-21T16:25:25.964Z,73.40
2022-09-21T16:27:58.671Z,72.52
2022-09-21T16:30:51.165Z,72.90
2022-09-21T16:33:36.667Z,73.33
2022-09-21T16:36:31.724Z,73.92
2022-09-21T16:39:06.137Z,72.39
2022-09-21T16:41:39.924Z,71.92
2022-09-21T16:44:16.305Z,72.11
2022-09-21T16:46:49.193Z,71.72
2022-09-21T16:49:21.824Z,72.63
2022-09-21T16:51:52.193Z,72.57
2022-09-21T16:54:25.296Z,73.44
2022-09-21T16:56:57.414Z,72.62
2022-09-21T16:59:27.966Z,72.92
2022-09-21T17:02:00.672Z,72.55
2022-09-21T17:04:32.789Z,73.18
2022-09-21T17:07:05.046Z,72.40
2022-09-21T17:09:38.377Z,72.69
2022-09-21T17:12:11.162Z,73.26
2022-09-21T17:14:46.703Z,72.84
2022-09-21T17:17:21.377Z,72.29
2022-09-21T17:19:54.191Z,73.73
2022-09-21T17:22:25.523Z,73.69
2022-09-21T17:24:55.933Z,73.15
2022-09-21T17:27:32.143Z,73.37
2022-09-21T17:30:03.560Z,73.95
2022-09-21T17:32:38.533Z,74.03
2022-09-21T17:35:17.012Z,74.89
2022-09-21T17:37:47.251Z,75.76
2022-09-21T17:40:18.168Z,75.05
2022-09-21T17:42:48.672Z,76.19
2022-09-21T17:45:27.065Z,74.61
2022-09-21T17:47:59.027Z,75.52
2022-09-21T17:50:29.647Z,75.34
2022-09-21T17:53:17.548Z,76.34
2022-09-21T17:55:54.519Z,75.73
2022-09-21T17:58:42.860Z,75.23
2022-09-21T18:01:23.668Z,75.77
2022-09-21T18:03:55.662Z,76.31
2022-09-21T18:06:26.923Z,75.93
2022-09-21T18:08:57.921Z,75.64
2022-09-21T18:12:04.569Z,75.83
2022-09-21T18:14:45.747Z,75.57
2022-09-21T18:17:29.613Z,75.14
2022-09-21T18:20:14.156Z,75.81
2022-09-21T18:22:55.215Z,75.64
2022-09-21T18:25:30.672Z,75.93
2022-09-21T18:28:07.919Z,75.13
2022-09-21T18:30:41.482Z,76.01
2022-09-21T18:33:21.719Z,75.84
2022-09-21T18:36:03.848Z,75.99
2022-09-21T18:38:41.498Z,76.55
2022-09-21T18:41:19.391Z,76.83
2022-09-21T18:44:04.689Z,77.59
2022-09-21T18:46:48.961Z,75.97
2022-09-21T18:49:23.727Z,75.51
2022-09-21T18:52:00.788Z,76.33
2022-09-21T18:54:31.673Z,76.91
2022-09-21T18:57:02.009Z,76.84
2022-09-21T18:59:32.323Z,76.29
2022-09-21T19:02:03.001Z,76.02
2022-09-21T19:04:34.240Z,76.19
2022-09-21T19:07:13.778Z,75.87
2022-09-21T19:09:52.557Z,77.27
2022-09-21T19:12:32.658Z,77.20
2022-09-21T19:15:17.121Z,77.29
2022-09-21T19:18:01.606Z,77.15
2022-09-21T19:20:58.013Z,78.20
2022-09-21T19:23:41.841Z,77.55
2022-09-21T19:26:23.298Z,77.20
2022-09-21T19:29:10.374Z,77.56
2022-09-21T19:31:40.618Z,77.60
2022-09-21T19:34:14.925Z,77.37
2022-09-21T19:36:47.389Z,77.32
2022-09-21T19:39:19.828Z,76.63
2022-09-21T19:42:03.322Z,76.91
2022-09-21T19:44:50.043Z,76.98
2022-09-21T19:47:29.331Z,78.00
2022-09-21T19:50:16.641Z,77.45
2022-09-21T19:52:48.525Z,77.14
2022-09-21T19:55:47.646Z,76.58
2022-09-21T19:58:35.531Z,75.83
2022-09-21T20:01:05.784Z,76.13
2022-09-21T20:03:40.611Z,75.52
2022-09-21T20:06:18.024Z,75.51
2022-09-21T20:08:53.912Z,76.43
2022-09-21T20:11:35.871Z,76.21
2022-09-21T20:14:19.235Z,76.35
2022-09-21T20:16:51.851Z,76.71
2022-09-21T20:19:35.187Z,76.53
2022-09-21T20:22:13.299Z,76.98
2022-09-21T20:24:52.180Z,77.55
2022-09-21T20:27:35.081Z,77.91
2022-09-21T20:30:06.953Z,78.29
2022-09-21T20:32:38.411Z,77.77
2022-09-21T20:35:16.044Z,77.38
2022-09-21T20:37:46.730Z,77.56
2022-09-21T20:40:17.314Z,78.04
2022-09-21T20:42:48.589Z,78.15
2022-09-21T20:45:19.142Z,78.43
2022-09-21T20:47:50.040Z,78.89
2022-09-21T20:50:20.655Z,79.19
2022-09-21T20:52:50.685Z,78.46
2022-09-21T20:55:20.530Z,78.49
2022-09-21T20:57:53.227Z,78.37
2022-09-21T21:00:23.052Z,78.73
2022-09-21T21:02:53.315Z,78.71
2022-09-21T21:05:23.001Z,78.97
2022-09-21T21:07:53.171Z,79.12
2022-09-21T21:10:23.262Z,78.97
2022-09-21T21:12:54.537Z,79.34
2022-09-21T21:15:24.466Z,79.50
2022-09-21T21:17:54.512Z,79.95
2022-09-21T21:20:24.431Z,80.05
2022-09-21T21:22:54.828Z,79.53
2022-09-21T21:25:24.616Z,79.58
2022-09-21T21:27:59.206Z,79.39
2022-09-21T21:30:28.991Z,78.82
2022-09-21T21:32:59.065Z,79.18
2022-09-21T21:35:30.173Z,79.08
2022-09-21T21:37:59.962Z,78.88
2022-09-21T21:40:30.643Z,79.04
2022-09-21T21:43:03.874Z,79.23
2022-09-21T21:45:33.990Z,79.33
2022-09-21T21:48:04.806Z,79.21
2022-09-21T21:50:35.911Z,79.71
2022-09-21T21:53:06.616Z,79.88
2022-09-21T21:55:36.539Z,79.51
2022-09-21T21:58:07.807Z,79.30
2022-09-21T22:00:37.600Z,79.17
2022-09-21T22:03:07.346Z,79.14
2022-09-21T22:05:38.404Z,78.45
2022-09-21T22:08:08.495Z,77.63
2022-09-21T22:10:38.265Z,78.05
2022-09-21T22:13:12.703Z,77.69
2022-09-21T22:15:42.842Z,77.30
2022-09-21T22:18:12.767Z,77.57
2022-09-21T22:20:42.666Z,77.69
2022-09-21T22:23:12.368Z,77.76
2022-09-21T22:25:42.915Z,77.41
2022-09-21T22:28:14.215Z,76.87
2022-09-21T22:30:49.878Z,75.87
2022-09-21T22:33:19.639Z,76.01
2022-09-21T22:35:49.422Z,74.89
2022-09-21T22:38:19.186Z,73.70
2022-09-21T22:40:49.652Z,73.05
2022-09-21T22:43:20.995Z,72.86
2022-09-21T22:45:50.770Z,72.86
2022-09-21T22:48:20.588Z,73.40
2022-09-21T22:50:50.391Z,73.46
2022-09-21T22:53:20.522Z,72.84
2022-09-21T22:55:50.301Z,72.38
2022-09-21T22:58:21.472Z,72.49
2022-09-21T23:00:51.275Z,72.87
2022-09-21T23:03:21.009Z,72.40
2022-09-21T23:05:57.391Z,73.47
2022-09-21T23:08:28.138Z,72.98
2022-09-21T23:11:05.876Z,73.27
2022-09-21T23:13:37.249Z,72.77
2022-09-21T23:16:09.429Z,72.93
2022-09-21T23:18:40.775Z,73.01
2022-09-21T23:21:13.285Z,72.58
2022-09-21T23:23:43.638Z,72.20
2022-09-21T23:26:15.352Z,72.22
2022-09-21T23:28:52.623Z,72.72
2022-09-21T23:31:22.977Z,72.31
2022-09-21T23:33:54.375Z,72.18
2022-09-21T23:36:27.583Z,72.16
2022-09-21T23:38:58.059Z,72.02
2022-09-21T23:41:29.701Z,72.61
2022-09-21T23:44:01.611Z,72.28
2022-09-21T23:46:33.912Z,71.25
2022-09-21T23:49:04.246Z,71.30
2022-09-21T23:51:34.464Z,71.01
2022-09-21T23:54:04.856Z,70.21
2022-09-21T23:56:35.364Z,70.36
2022-09-21T23:59:06.991Z,70.40
